createdAt,value
2022-09-15T00:29:11.026Z,10.53
2022-09-15T00:32:04.269Z,11.70
2022-09-15T02:31:35.694Z,9.27
2022-09-15T02:36:46.291Z,10.80
2022-09-15T02:43:25.708Z,7.87
2022-09-15T03:32:03.486Z,16.30
2022-09-15T03:34:48.289Z,14.13
2022-09-15T03:37:40.544Z,12.90
2022-09-15T03:40:24.506Z,29.80
2022-09-15T03:43:18.005Z,9.43
2022-09-15T03:46:05.364Z,12.50
2022-09-15T03:48:59.744Z,17.57
2022-09-15T03:51:50.324Z,13.50
2022-09-15T03:54:34.923Z,20.87
2022-09-15T05:09:13.379Z,18.37
2022-09-15T05:11:40.726Z,29.77
2022-09-15T05:16:54.903Z,24.70
2022-09-15T05:19:22.285Z,22.20
2022-09-15T05:21:49.716Z,16.73
2022-09-15T05:24:16.895Z,18.83
2022-09-15T05:26:44.014Z,13.67
2022-09-15T05:29:11.269Z,19.33
2022-09-15T05:31:38.538Z,31.13
2022-09-15T05:34:06.596Z,24.37
2022-09-15T05:36:34.251Z,24.80
2022-09-15T05:39:02.035Z,21.77
2022-09-15T05:41:30.058Z,23.57
2022-09-15T05:44:14.313Z,22.07
2022-09-15T05:46:41.518Z,23.00
2022-09-15T05:49:09.106Z,20.73
2022-09-15T05:51:36.512Z,20.03
2022-09-15T05:54:03.845Z,20.87
2022-09-15T05:56:31.322Z,20.40
2022-09-15T05:58:58.688Z,20.80
2022-09-15T06:01:31.619Z,25.07
2022-09-15T06:03:58.816Z,24.43
2022-09-15T06:06:27.072Z,24.00
2022-09-15T06:08:58.581Z,24.87
2022-09-15T06:11:28.869Z,23.47
2022-09-15T06:14:04.328Z,27.40
2022-09-15T06:16:35.804Z,22.83
2022-09-15T06:19:03.595Z,22.03
2022-09-15T06:21:32.703Z,22.77
2022-09-15T06:24:03.416Z,22.60
2022-09-15T06:26:48.993Z,19.03
2022-09-15T06:29:16.231Z,14.47
2022-09-15T06:31:43.642Z,20.33
2022-09-15T06:34:11.818Z,19.60
2022-09-15T06:36:39.207Z,23.53
2022-09-15T06:39:06.519Z,25.20
2022-09-15T06:41:52.900Z,21.63
2022-09-15T06:44:23.589Z,16.70
2022-09-15T06:46:51.062Z,17.33
2022-09-15T06:49:18.433Z,21.60
2022-09-15T06:51:45.758Z,17.77
2022-09-15T06:54:14.590Z,19.00
2022-09-15T06:56:42.912Z,15.27
2022-09-15T06:59:15.140Z,17.80
2022-09-15T07:01:43.197Z,19.50
2022-09-15T07:04:10.661Z,16.13
2022-09-15T07:06:39.619Z,16.07
2022-09-15T07:09:06.926Z,19.20
2022-09-15T07:11:34.251Z,16.33
2022-09-15T07:14:19.595Z,17.40
2022-09-15T07:16:47.932Z,18.00
2022-09-15T07:19:15.335Z,16.10
2022-09-15T07:21:42.475Z,15.37
2022-09-15T07:24:10.486Z,16.13
2022-09-15T07:26:37.848Z,15.83
2022-09-15T07:29:06.951Z,16.40
2022-09-15T07:31:37.690Z,16.63
2022-09-15T07:34:05.341Z,16.23
2022-09-15T07:36:32.559Z,15.90
2022-09-15T07:38:59.682Z,15.30
2022-09-15T07:41:28.717Z,16.13
2022-09-15T07:43:59.172Z,16.70
2022-09-15T07:46:29.807Z,16.20
2022-09-15T07:48:57.059Z,16.23
2022-09-15T07:51:25.800Z,15.30
2022-09-15T07:53:53.745Z,16.57
2022-09-15T07:56:22.267Z,16.80
2022-09-15T07:58:50.163Z,15.40
2022-09-15T08:01:18.891Z,15.30
2022-09-15T08:03:49.036Z,14.87
2022-09-15T08:06:19.062Z,14.70
2022-09-15T08:08:46.337Z,16.40
2022-09-15T08:11:18.981Z,14.40
2022-09-15T08:13:48.134Z,14.97
2022-09-15T08:16:18.702Z,14.80
2022-09-15T08:18:46.112Z,14.50
2022-09-15T08:21:16.254Z,14.70
2022-09-15T08:23:44.023Z,15.87
2022-09-15T08:26:14.384Z,14.23
2022-09-15T08:28:42.394Z,14.40
2022-09-15T08:31:11.661Z,12.97
2022-09-15T08:33:43.345Z,12.33
2022-09-15T08:36:13.273Z,12.90
2022-09-15T08:38:43.286Z,13.67
2022-09-15T08:41:20.936Z,13.30
2022-09-15T08:43:58.352Z,12.83
2022-09-15T08:46:37.252Z,34.50
2022-09-15T08:49:40.980Z,12.97
2022-09-15T08:52:18.381Z,12.37
2022-09-15T08:54:45.774Z,12.53
2022-09-15T08:57:20.036Z,10.90
2022-09-15T08:59:47.318Z,13.53
2022-09-15T09:02:47.157Z,12.00
2022-09-15T09:05:32.775Z,10.27
2022-09-15T09:08:30.932Z,10.80
2022-09-15T09:11:24.637Z,10.00
2022-09-15T09:14:12.971Z,9.30
2022-09-15T09:16:52.070Z,8.53
2022-09-15T09:19:28.959Z,8.97
2022-09-15T09:22:14.070Z,9.60
2022-09-15T09:24:48.095Z,10.63
2022-09-15T09:27:20.677Z,12.37
2022-09-15T09:29:50.032Z,8.97
2022-09-15T09:32:26.490Z,8.43
2022-09-15T09:35:16.147Z,11.17
2022-09-15T09:37:43.778Z,10.65
2022-09-15T09:40:15.836Z,7.80
2022-09-15T09:42:44.051Z,7.50
2022-09-15T09:45:16.316Z,9.20
2022-09-15T09:47:43.696Z,7.47
2022-09-15T09:50:34.774Z,9.43
2022-09-15T09:53:24.182Z,8.48
2022-09-15T09:55:53.352Z,8.50
2022-09-15T09:58:24.207Z,6.60
2022-09-15T10:00:52.906Z,6.17
2022-09-15T10:03:23.111Z,6.28
2022-09-15T10:06:07.725Z,4.78
2022-09-15T10:08:36.702Z,4.50
2022-09-15T10:11:10.483Z,12.97
2022-09-15T10:13:52.724Z,7.37
2022-09-15T10:16:21.107Z,4.90
2022-09-15T10:18:54.162Z,4.10
2022-09-15T10:21:26.065Z,5.90
2022-09-15T10:23:53.370Z,5.13
2022-09-15T10:26:33.858Z,4.28
2022-09-15T10:29:12.761Z,6.30
2022-09-15T10:31:40.784Z,5.95
2022-09-15T10:34:26.647Z,4.05
2022-09-15T10:37:14.289Z,10.23
2022-09-15T10:39:53.375Z,4.70
2022-09-15T10:42:39.857Z,6.20
2022-09-15T10:45:32.831Z,3.83
2022-09-15T10:48:11.901Z,3.80
2022-09-15T10:50:51.954Z,6.32
2022-09-15T10:53:41.981Z,4.93
2022-09-15T10:56:32.834Z,4.35
2022-09-15T10:59:23.908Z,11.10
2022-09-15T11:02:14.805Z,4.95
2022-09-15T11:04:51.047Z,4.63
2022-09-15T11:07:33.782Z,3.95
2022-09-15T11:10:11.089Z,3.53
2022-09-15T11:12:44.066Z,2.70
2022-09-15T11:15:24.995Z,3.13
2022-09-15T11:18:21.422Z,2.58
2022-09-15T11:21:26.328Z,2.75
2022-09-15T11:24:35.100Z,3.20
2022-09-15T11:27:07.725Z,25.52
2022-09-15T11:30:01.461Z,1.98
2022-09-15T11:32:41.364Z,3.13
2022-09-15T11:35:50.220Z,36.35
2022-09-15T11:38:28.467Z,2.42
2022-09-15T11:41:02.527Z,9.75
2022-09-15T11:44:08.807Z,5.78
2022-09-15T11:47:18.119Z,1.50
2022-09-15T11:50:12.981Z,1.60
2022-09-15T11:52:52.307Z,1.60
2022-09-15T11:55:44.401Z,1.80
2022-09-15T11:58:22.103Z,1.70
2022-09-15T12:01:14.174Z,1.60
2022-09-15T12:03:55.306Z,2.07
2022-09-15T12:06:47.452Z,1.63
2022-09-15T12:09:17.824Z,1.97
2022-09-15T12:11:51.773Z,2.03
2022-09-15T12:14:41.593Z,1.40
2022-09-15T12:17:17.633Z,6.73
2022-09-15T12:20:02.032Z,1.77
2022-09-15T12:22:44.428Z,1.67
2022-09-15T12:25:30.726Z,1.63
2022-09-15T12:28:22.865Z,2.38
2022-09-15T12:31:11.030Z,1.85
2022-09-15T12:33:45.350Z,1.80
2022-09-15T12:36:33.301Z,1.93
2022-09-15T12:39:02.166Z,1.40
2022-09-15T12:41:30.567Z,1.60
2022-09-15T12:44:32.088Z,3.08
2022-09-15T12:47:01.056Z,26.50
2022-09-15T12:49:42.174Z,1.63
2022-09-15T12:52:10.066Z,1.45
2022-09-15T12:54:54.046Z,4.10
2022-09-15T12:57:29.224Z,1.77
2022-09-15T13:00:27.637Z,2.58
2022-09-15T13:02:57.463Z,2.17
2022-09-15T13:05:42.788Z,2.25
2022-09-15T13:08:31.319Z,1.33
2022-09-15T13:11:37.200Z,13.70
2022-09-15T13:14:08.760Z,2.80
2022-09-15T13:16:46.121Z,2.83
2022-09-15T13:19:41.508Z,18.00
2022-09-15T13:22:11.577Z,3.55
2022-09-15T13:24:59.205Z,3.00
2022-09-15T13:27:41.414Z,1.30
2022-09-15T13:30:20.628Z,3.03
2022-09-15T13:33:10.821Z,1.90
2022-09-15T13:35:46.982Z,1.52
2022-09-15T13:38:30.742Z,1.48
2022-09-15T13:41:08.005Z,1.60
2022-09-15T13:44:04.931Z,1.60
2022-09-15T13:47:22.721Z,2.28
2022-09-15T13:50:23.394Z,1.23
2022-09-15T13:53:11.793Z,1.20
2022-09-15T13:55:43.393Z,1.67
2022-09-15T14:01:05.785Z,1.40
2022-09-15T14:03:42.257Z,1.70
2022-09-15T14:06:19.597Z,7.88
2022-09-15T14:08:51.462Z,2.00
2022-09-15T14:11:27.252Z,1.48
2022-09-15T14:14:01.001Z,1.10
2022-09-15T14:16:39.308Z,1.70
2022-09-15T14:19:24.845Z,2.38
2022-09-15T14:21:56.265Z,1.70
2022-09-15T14:24:29.103Z,2.25
2022-09-15T14:27:00.805Z,5.20
2022-09-15T14:29:28.061Z,1.70
2022-09-15T14:32:16.380Z,7.28
2022-09-15T14:34:45.099Z,4.50
2022-09-15T14:37:24.112Z,1.80
2022-09-15T14:39:56.630Z,1.52
2022-09-15T14:42:32.653Z,13.82
2022-09-15T14:48:01.478Z,2.03
2022-09-15T14:50:33.169Z,2.50
2022-09-15T14:53:11.582Z,1.87
2022-09-15T14:55:38.654Z,1.23
2022-09-15T14:58:21.251Z,1.60
2022-09-15T15:01:20.552Z,1.83
2022-09-15T15:03:53.107Z,3.53
2022-09-15T15:06:29.403Z,2.30
2022-09-15T15:09:14.528Z,2.97
2022-09-15T15:11:42.534Z,2.03
2022-09-15T15:14:16.531Z,3.78
2022-09-15T15:16:58.463Z,2.42
2022-09-15T15:19:40.133Z,2.40
2022-09-15T15:22:13.147Z,1.40
2022-09-15T15:24:43.064Z,1.30
2022-09-15T15:27:26.269Z,1.33
2022-09-15T15:29:53.307Z,1.23
2022-09-15T15:32:22.741Z,1.77
2022-09-15T15:34:55.818Z,1.33
2022-09-15T15:37:29.632Z,1.53
2022-09-15T15:39:59.111Z,1.43
2022-09-15T15:42:28.776Z,4.07
2022-09-15T15:47:44.288Z,1.33
2022-09-15T15:50:14.523Z,1.47
2022-09-15T15:52:43.754Z,1.60
2022-09-15T15:55:25.087Z,13.90
2022-09-15T15:57:56.061Z,1.10
2022-09-15T16:00:29.647Z,18.00
2022-09-15T16:02:56.799Z,13.33
2022-09-15T16:05:27.626Z,22.47
2022-09-15T16:07:56.580Z,8.77
2022-09-15T16:10:28.084Z,1.43
2022-09-15T16:12:55.279Z,12.67
2022-09-15T16:15:22.777Z,1.53
2022-09-15T16:17:49.980Z,3.47
2022-09-15T16:20:19.793Z,1.00
2022-09-15T16:22:47.047Z,1.30
2022-09-15T16:25:26.898Z,1.60
2022-09-15T16:27:54.047Z,1.97
2022-09-15T16:30:21.103Z,2.67
2022-09-15T16:32:48.221Z,1.77
2022-09-15T16:35:32.038Z,2.10
2022-09-15T16:37:59.343Z,1.43
2022-09-15T16:40:26.762Z,2.10
2022-09-15T16:42:53.945Z,3.53
2022-09-15T16:45:37.993Z,1.73
2022-09-15T16:48:08.632Z,1.37
2022-09-15T16:50:39.890Z,1.00
2022-09-15T16:53:17.991Z,1.57
2022-09-15T16:55:50.878Z,1.17
2022-09-15T16:58:19.690Z,2.30
2022-09-15T17:00:49.706Z,2.20
2022-09-15T17:03:19.347Z,2.10
2022-09-15T17:05:52.071Z,1.53
2022-09-15T17:08:21.749Z,1.40
2022-09-15T17:10:49.567Z,1.47
2022-09-15T17:13:22.263Z,2.03
2022-09-15T17:15:53.913Z,1.57
2022-09-15T17:18:22.245Z,1.60
2022-09-15T17:20:55.749Z,1.57
2022-09-15T17:23:24.724Z,1.30
2022-09-15T17:26:07.167Z,2.77
2022-09-15T17:28:36.570Z,1.60
2022-09-15T17:31:34.357Z,1.70
2022-09-15T17:34:02.276Z,1.30
2022-09-15T17:36:41.848Z,1.40
2022-09-15T17:39:09.536Z,1.77
2022-09-15T17:41:38.555Z,1.50
2022-09-15T17:44:21.652Z,3.80
2022-09-15T17:46:55.503Z,3.17
2022-09-15T17:49:22.709Z,2.20
2022-09-15T17:51:50.012Z,2.70
2022-09-15T17:54:26.370Z,1.73
2022-09-15T17:56:53.892Z,2.40
2022-09-15T17:59:21.141Z,1.47
2022-09-15T18:02:28.551Z,2.27
2022-09-15T18:04:56.552Z,2.33
2022-09-15T18:07:26.875Z,2.57
2022-09-15T18:09:55.134Z,3.80
2022-09-15T18:12:22.352Z,2.13
2022-09-15T18:15:03.137Z,4.90
2022-09-15T18:17:30.543Z,1.30
2022-09-15T18:19:57.950Z,16.57
2022-09-15T18:22:25.116Z,2.87
2022-09-15T18:24:52.253Z,2.70
2022-09-15T18:27:19.488Z,4.03
2022-09-15T18:29:46.655Z,7.33
2022-09-15T18:32:26.872Z,2.47
2022-09-15T18:34:54.038Z,8.00
2022-09-15T18:37:21.344Z,2.80
2022-09-15T18:39:48.597Z,3.40
2022-09-15T18:42:15.670Z,7.47
2022-09-15T18:44:42.996Z,2.30
2022-09-15T18:47:10.286Z,4.17
2022-09-15T18:49:37.476Z,2.60
2022-09-15T18:52:05.222Z,7.10
2022-09-15T18:54:35.004Z,2.57
2022-09-15T18:57:02.294Z,2.40
2022-09-15T18:59:29.388Z,3.57
2022-09-15T19:02:16.324Z,7.30
2022-09-15T19:04:43.838Z,3.00
2022-09-15T19:07:11.721Z,3.27
2022-09-15T19:09:38.923Z,3.57
2022-09-15T19:12:06.613Z,2.30
2022-09-15T19:14:33.996Z,8.03
2022-09-15T19:17:01.302Z,2.80
2022-09-15T19:19:28.693Z,3.07
2022-09-15T19:21:56.125Z,4.63
2022-09-15T19:24:23.604Z,3.23
2022-09-15T19:26:50.823Z,5.87
2022-09-15T19:29:18.050Z,3.27
2022-09-15T19:31:45.223Z,4.77
2022-09-15T19:34:12.586Z,4.47
2022-09-15T19:36:45.999Z,2.30
2022-09-15T19:39:53.357Z,32.27
2022-09-15T19:42:20.934Z,4.90
2022-09-15T19:44:53.385Z,4.13
2022-09-15T19:47:23.783Z,7.90
2022-09-15T19:50:11.932Z,2.77
2022-09-15T19:52:45.120Z,4.77
2022-09-15T19:55:13.369Z,4.57
2022-09-15T19:57:42.549Z,3.80
2022-09-15T20:00:12.461Z,3.03
2022-09-15T20:02:39.840Z,6.23
2022-09-15T20:05:08.145Z,4.37
2022-09-15T20:07:35.323Z,5.43
2022-09-15T20:10:02.907Z,6.33
2022-09-15T20:12:31.212Z,4.70
2022-09-15T20:14:58.420Z,2.87
2022-09-15T20:17:25.821Z,2.90
2022-09-15T20:19:58.660Z,4.40
2022-09-15T20:22:26.010Z,3.37
2022-09-15T20:24:53.165Z,4.23
2022-09-15T20:27:20.286Z,2.20
2022-09-15T20:29:47.557Z,9.23
2022-09-15T20:32:14.729Z,5.67
2022-09-15T20:34:41.986Z,7.07
2022-09-15T20:37:09.170Z,7.87
2022-09-15T20:39:36.318Z,2.70
2022-09-15T20:42:03.715Z,2.37
2022-09-15T20:44:36.608Z,2.50
2022-09-15T20:47:03.776Z,9.37
2022-09-15T20:49:31.016Z,2.10
2022-09-15T20:52:01.264Z,3.50
2022-09-15T20:54:29.622Z,3.17
2022-09-15T20:57:02.962Z,5.13
2022-09-15T20:59:30.080Z,4.83
2022-09-15T21:02:18.548Z,1.57
2022-09-15T21:05:12.995Z,2.60
2022-09-15T21:10:44.895Z,8.90
2022-09-15T21:13:12.129Z,3.70
2022-09-15T21:15:39.302Z,2.73
2022-09-15T21:18:06.546Z,9.60
2022-09-15T21:20:41.489Z,17.73
2022-09-15T21:23:08.919Z,23.93
2022-09-15T21:25:36.127Z,17.13
2022-09-15T21:28:03.441Z,2.13
2022-09-15T21:30:30.588Z,4.27
2022-09-15T21:32:57.825Z,5.43
2022-09-15T21:35:24.966Z,6.83
2022-09-15T21:38:05.303Z,7.93
2022-09-15T21:40:34.863Z,10.07
2022-09-15T21:43:03.402Z,11.73
2022-09-15T21:45:30.588Z,7.37
2022-09-15T21:47:58.073Z,48.47
2022-09-15T21:50:27.334Z,15.67
2022-09-15T21:52:54.860Z,9.67
2022-09-15T21:55:21.968Z,9.50
2022-09-15T21:57:49.143Z,18.07
2022-09-15T22:00:25.422Z,4.63
2022-09-15T22:02:52.609Z,6.40
2022-09-15T22:05:19.849Z,7.83
2022-09-15T22:07:48.447Z,4.63
2022-09-15T22:10:15.691Z,8.20
2022-09-15T22:12:51.610Z,9.37
2022-09-15T22:15:18.867Z,5.23
2022-09-15T22:17:45.967Z,13.77
2022-09-15T22:20:13.084Z,4.73
2022-09-15T22:22:40.597Z,1.80
2022-09-15T22:25:08.251Z,9.70
2022-09-15T22:27:42.555Z,29.90
2022-09-15T22:30:10.321Z,6.30
2022-09-15T22:32:37.479Z,4.83
2022-09-15T22:35:11.546Z,9.07
2022-09-15T22:37:38.679Z,6.00
2022-09-15T22:40:06.685Z,16.37
2022-09-15T22:42:33.808Z,7.80
2022-09-15T22:45:02.157Z,6.63
2022-09-15T22:47:29.330Z,3.23
2022-09-15T22:50:04.466Z,7.67
2022-09-15T22:52:31.528Z,11.83
2022-09-15T22:54:58.981Z,3.10
2022-09-15T22:57:26.124Z,5.90
2022-09-15T22:59:53.276Z,11.33
2022-09-15T23:02:38.911Z,5.40
2022-09-15T23:05:06.613Z,7.00
2022-09-15T23:07:34.638Z,2.40
2022-09-15T23:10:02.066Z,8.37
2022-09-15T23:12:32.890Z,2.97
2022-09-15T23:15:11.489Z,9.60
2022-09-15T23:17:39.154Z,1.60
2022-09-15T23:31:51.055Z,7.97
